Time;durP1;ratioP1;P1;durP2;ratioP2;P2;SDS_P1;SDS_P2;PMS_P1;PMS_P2;Temp;Humidity;BMP_temperature;BMP_pressure;BME280_temperature;BME280_humidity;BME280_pressure;Samples;Min_cycle;Max_cycle;Signal;HPM_P1;HPM_P2
2023/06/30 00:01:57;;;;;;;4.07;1.15;;;14.50;99.90;;;;;;6216698;23;20017;-83
2023/06/30 00:04:23;;;;;;;4.57;1.00;;;14.40;99.90;;;;;;6189460;23;20047;-82
2023/06/30 00:06:50;;;;;;;5.00;0.93;;;14.40;99.90;;;;;;6216076;23;20074;-83
2023/06/30 00:09:19;;;;;;;3.55;0.90;;;14.40;99.90;;;;;;6215951;23;20075;-83
2023/06/30 00:11:48;;;;;;;1.35;0.85;;;14.30;99.90;;;;;;6189413;23;20028;-83
2023/06/30 00:14:14;;;;;;;2.15;0.80;;;14.40;99.90;;;;;;6216257;23;20028;-83
2023/06/30 00:16:39;;;;;;;3.28;0.80;;;14.30;99.90;;;;;;6215975;23;20024;-83
2023/06/30 00:19:05;;;;;;;3.22;0.93;;;14.30;99.90;;;;;;6189496;23;20017;-83
2023/06/30 00:21:31;;;;;;;2.00;0.80;;;14.30;99.90;;;;;;6216354;23;20025;-83
2023/06/30 00:24:01;;;;;;;2.10;0.88;;;14.30;99.90;;;;;;6216120;23;20393;-84
2023/06/30 00:26:29;;;;;;;1.88;0.95;;;14.30;99.90;;;;;;6216421;23;20017;-82
2023/06/30 00:28:55;;;;;;;2.72;1.00;;;14.30;99.90;;;;;;6217101;23;20351;-82
2023/06/30 00:31:20;;;;;;;2.33;0.82;;;14.30;99.90;;;;;;6216149;23;20390;-82
2023/06/30 00:33:46;;;;;;;2.10;0.70;;;14.30;99.90;;;;;;6165171;23;20156;-84
2023/06/30 00:36:11;;;;;;;3.60;1.05;;;14.20;99.90;;;;;;6216553;23;20024;-83
2023/06/30 00:38:37;;;;;;;5.00;0.90;;;14.10;99.90;;;;;;6190648;23;20025;-84
2023/06/30 00:41:03;;;;;;;3.67;1.10;;;14.20;99.90;;;;;;6216787;23;20474;-84
2023/06/30 00:43:32;;;;;;;1.92;0.80;;;14.10;99.90;;;;;;6216408;23;20407;-85
2023/06/30 00:45:57;;;;;;;5.93;1.20;;;14.10;99.90;;;;;;6217276;23;20066;-82
2023/06/30 00:48:23;;;;;;;1.13;0.70;;;14.10;99.90;;;;;;6218435;23;20521;-83
2023/06/30 00:50:49;;;;;;;3.58;0.75;;;14.00;99.90;;;;;;6192002;23;20321;-84
2023/06/30 00:53:15;;;;;;;4.38;0.98;;;14.00;99.90;;;;;;6218473;23;20075;-86
2023/06/30 00:55:41;;;;;;;3.20;0.75;;;14.20;99.90;;;;;;6217453;23;20048;-82
2023/06/30 00:58:08;;;;;;;2.55;1.00;;;13.90;99.90;;;;;;6241095;23;20056;-84
2023/06/30 01:00:34;;;;;;;1.70;0.90;;;13.90;99.90;;;;;;6220075;23;20023;-85
2023/06/30 01:03:30;;;;;;;2.10;0.90;;;13.80;99.90;;;;;;6246526;23;20339;-87
2023/06/30 01:06:08;;;;;;;6.07;1.10;;;13.80;99.90;;;;;;6246463;23;20020;-88
2023/06/30 01:08:47;;;;;;;2.08;0.82;;;13.80;99.90;;;;;;6219156;23;20024;-86
2023/06/30 01:11:14;;;;;;;2.97;1.10;;;13.80;99.90;;;;;;6246162;23;20051;-86
2023/06/30 01:13:41;;;;;;;3.08;0.90;;;13.90;99.90;;;;;;6246144;23;20016;-87
2023/06/30 01:16:09;;;;;;;1.63;0.60;;;13.70;99.90;;;;;;6246151;23;20343;-87
2023/06/30 01:18:36;;;;;;;3.33;0.80;;;13.60;99.90;;;;;;6246151;23;20028;-87
2023/06/30 01:21:04;;;;;;;2.55;0.98;;;13.70;99.90;;;;;;6246261;23;20030;-83
2023/06/30 01:23:41;;;;;;;4.55;0.73;;;13.60;99.90;;;;;;6246043;23;20020;-90
2023/06/30 01:26:07;;;;;;;4.95;1.10;;;13.60;99.90;;;;;;6219070;23;20024;-84
2023/06/30 01:28:34;;;;;;;3.13;1.30;;;13.50;99.90;;;;;;6246078;23;20505;-85
2023/06/30 01:31:00;;;;;;;3.47;1.10;;;13.70;99.90;;;;;;6246059;23;20107;-83
2023/06/30 01:33:27;;;;;;;4.88;0.90;;;13.50;99.90;;;;;;6245840;23;20083;-86
2023/06/30 01:35:53;;;;;;;3.38;0.85;;;13.50;99.90;;;;;;6218860;23;20024;-83
2023/06/30 01:38:19;;;;;;;4.50;1.02;;;13.40;99.90;;;;;;6218752;23;20046;-86
2023/06/30 01:40:46;;;;;;;2.45;1.02;;;13.40;99.90;;;;;;6245332;23;20016;-85
2023/06/30 01:43:13;;;;;;;2.00;0.90;;;13.40;99.90;;;;;;6246231;23;20051;-84
2023/06/30 01:45:40;;;;;;;2.25;0.82;;;13.40;99.90;;;;;;6245707;23;20347;-83
2023/06/30 01:48:06;;;;;;;1.58;0.77;;;13.30;99.90;;;;;;6245855;23;20062;-83
2023/06/30 01:50:32;;;;;;;2.65;0.70;;;13.30;99.90;;;;;;6245818;23;20026;-83
2023/06/30 01:52:59;;;;;;;1.92;0.85;;;13.30;99.90;;;;;;6245611;23;20513;-84
2023/06/30 01:55:28;;;;;;;3.55;1.00;;;13.30;99.90;;;;;;6219000;23;20031;-82
2023/06/30 01:57:54;;;;;;;4.68;1.23;;;13.20;99.90;;;;;;6217714;23;20027;-83
2023/06/30 02:00:19;;;;;;;5.80;0.95;;;13.20;99.90;;;;;;6245971;23;20020;-82
2023/06/30 02:02:45;;;;;;;3.33;1.17;;;13.20;99.90;;;;;;6246154;23;20016;-83
2023/06/30 02:05:12;;;;;;;1.45;0.80;;;13.10;99.90;;;;;;6246137;23;20019;-83
2023/06/30 02:07:38;;;;;;;4.63;0.70;;;13.10;99.90;;;;;;6245540;23;20347;-82
2023/06/30 02:10:04;;;;;;;2.92;0.90;;;13.10;99.90;;;;;;6245389;23;20023;-82
2023/06/30 02:12:29;;;;;;;6.93;1.27;;;13.10;99.90;;;;;;6245864;23;20031;-82
2023/06/30 02:14:55;;;;;;;6.82;0.80;;;13.10;99.90;;;;;;6218746;23;20024;-84
2023/06/30 02:17:32;;;;;;;4.13;0.93;;;13.00;99.90;;;;;;6218433;23;20074;-82
2023/06/30 02:20:05;;;;;;;2.72;0.90;;;13.00;99.90;;;;;;6245849;23;20031;-83
2023/06/30 02:22:31;;;;;;;2.60;1.30;;;13.00;99.90;;;;;;6218806;23;20051;-83
2023/06/30 02:24:57;;;;;;;3.60;1.00;;;12.90;99.90;;;;;;6245667;23;20338;-83
2023/06/30 02:27:24;;;;;;;1.58;0.80;;;12.90;99.90;;;;;;6245299;23;20016;-82
2023/06/30 02:29:50;;;;;;;2.85;0.70;;;12.90;99.90;;;;;;6218333;23;20020;-83
2023/06/30 02:32:16;;;;;;;0.80;0.63;;;12.90;99.90;;;;;;6245698;23;20025;-84
2023/06/30 02:34:42;;;;;;;1.92;0.80;;;12.80;99.90;;;;;;6245354;23;20047;-83
2023/06/30 02:37:07;;;;;;;3.17;0.90;;;13.00;99.90;;;;;;6218232;23;20026;-83
2023/06/30 02:39:33;;;;;;;2.42;0.85;;;12.80;99.90;;;;;;6245329;23;20020;-81
2023/06/30 02:41:59;;;;;;;2.03;1.00;;;12.80;99.90;;;;;;6245706;23;20024;-83
2023/06/30 02:44:25;;;;;;;2.58;0.93;;;12.70;99.90;;;;;;6218903;23;20446;-83
2023/06/30 02:46:53;;;;;;;4.47;0.70;;;12.70;99.90;;;;;;6221133;23;20063;-82
2023/06/30 02:49:19;;;;;;;1.98;0.80;;;12.70;99.90;;;;;;6220469;23;20016;-82
2023/06/30 02:51:45;;;;;;;1.67;0.90;;;12.70;99.90;;;;;;6220901;23;20024;-86
2023/06/30 02:54:10;;;;;;;3.67;0.82;;;12.60;99.90;;;;;;6247572;23;20043;-83
2023/06/30 02:56:36;;;;;;;3.67;1.08;;;12.70;99.90;;;;;;6247198;23;20024;-85
2023/06/30 02:59:01;;;;;;;2.88;1.00;;;12.60;99.90;;;;;;6219935;23;20016;-84
2023/06/30 03:01:27;;;;;;;4.75;1.23;;;12.60;99.90;;;;;;6247074;23;20020;-84
2023/06/30 03:03:53;;;;;;;6.13;0.90;;;12.80;99.90;;;;;;6247318;23;20020;-83
2023/06/30 03:06:20;;;;;;;2.22;0.77;;;12.50;99.90;;;;;;6246698;23;20367;-82
2023/06/30 03:08:46;;;;;;;2.05;0.70;;;12.50;99.90;;;;;;6246996;23;20066;-86
2023/06/30 03:11:12;;;;;;;3.47;0.90;;;12.50;99.90;;;;;;6246990;23;20103;-84
2023/06/30 03:13:38;;;;;;;2.15;0.93;;;12.50;99.90;;;;;;6246933;23;20051;-84
2023/06/30 03:16:05;;;;;;;4.55;0.95;;;12.70;99.90;;;;;;6247306;23;20043;-83
2023/06/30 03:18:30;;;;;;;3.00;0.80;;;12.40;99.90;;;;;;6247177;23;20027;-85
2023/06/30 03:20:56;;;;;;;1.10;0.60;;;12.40;99.90;;;;;;6219292;23;20020;-84
2023/06/30 03:23:22;;;;;;;2.20;0.80;;;12.30;99.90;;;;;;6195078;23;20031;-83
2023/06/30 03:25:48;;;;;;;6.03;0.90;;;12.30;99.90;;;;;;6219941;23;20043;-83
2023/06/30 03:28:13;;;;;;;1.83;0.75;;;12.20;99.90;;;;;;6247261;23;20028;-84
2023/06/30 03:30:39;;;;;;;3.15;1.00;;;12.30;99.90;;;;;;6247414;23;20171;-83
2023/06/30 03:33:05;;;;;;;4.28;1.17;;;12.30;99.90;;;;;;6219882;23;20017;-85
2023/06/30 03:35:30;;;;;;;2.00;0.85;;;12.30;99.90;;;;;;6220011;23;20441;-85
2023/06/30 03:37:56;;;;;;;1.83;1.08;;;12.20;99.90;;;;;;6247186;23;20443;-88
2023/06/30 03:40:22;;;;;;;3.70;1.00;;;12.20;99.90;;;;;;6247235;23;20110;-83
2023/06/30 03:42:47;;;;;;;2.17;0.80;;;12.20;99.90;;;;;;6220336;23;20031;-85
2023/06/30 03:45:13;;;;;;;1.67;0.90;;;12.60;99.90;;;;;;6246615;23;20024;-85
2023/06/30 03:47:39;;;;;;;3.08;0.65;;;12.20;99.90;;;;;;6247029;23;20027;-85
2023/06/30 03:50:05;;;;;;;1.92;0.93;;;12.20;99.90;;;;;;6247216;23;20020;-84
2023/06/30 03:52:31;;;;;;;1.50;0.80;;;12.20;99.90;;;;;;6247247;23;20089;-84
2023/06/30 03:54:57;;;;;;;4.07;0.70;;;12.20;99.90;;;;;;6246588;23;20099;-83
2023/06/30 03:57:22;;;;;;;2.58;0.73;;;12.20;99.90;;;;;;6246472;23;20016;-83
2023/06/30 03:59:48;;;;;;;2.40;0.90;;;12.20;99.90;;;;;;6246450;23;20016;-83
2023/06/30 04:02:14;;;;;;;2.40;0.90;;;12.20;99.90;;;;;;6246862;23;20074;-82
2023/06/30 04:04:40;;;;;;;2.08;0.80;;;12.20;99.90;;;;;;6219430;23;20059;-83
2023/06/30 04:07:05;;;;;;;2.75;0.80;;;12.20;99.90;;;;;;6219395;23;20024;-83
2023/06/30 04:09:31;;;;;;;2.20;0.82;;;12.20;99.90;;;;;;6219422;23;20389;-84
2023/06/30 04:11:57;;;;;;;3.60;0.88;;;12.30;99.90;;;;;;6246765;23;20461;-82
2023/06/30 04:14:22;;;;;;;5.07;0.80;;;12.30;99.90;;;;;;6246732;23;20016;-82
2023/06/30 04:16:48;;;;;;;3.15;0.80;;;12.30;99.90;;;;;;6219795;23;20450;-82
2023/06/30 04:19:14;;;;;;;1.55;0.70;;;12.40;99.90;;;;;;6220132;23;20017;-83
2023/06/30 04:21:39;;;;;;;1.70;0.82;;;12.40;99.90;;;;;;6247139;23;20035;-82
2023/06/30 04:24:05;;;;;;;1.65;0.80;;;12.80;99.90;;;;;;6219647;23;20058;-85
2023/06/30 04:26:31;;;;;;;3.08;0.82;;;12.40;99.90;;;;;;6247130;23;20020;-84
2023/06/30 04:28:57;;;;;;;2.78;0.82;;;12.50;99.90;;;;;;6247795;23;20334;-84
2023/06/30 04:31:23;;;;;;;1.58;0.75;;;12.50;99.90;;;;;;6197837;23;20055;-85
2023/06/30 04:33:49;;;;;;;2.45;0.90;;;12.60;99.90;;;;;;6250718;23;20457;-88
2023/06/30 04:36:17;;;;;;;1.80;0.75;;;12.70;99.90;;;;;;6250589;23;20024;-87
2023/06/30 04:38:46;;;;;;;2.08;0.80;;;12.70;99.90;;;;;;6250089;23;20020;-83
2023/06/30 04:41:12;;;;;;;4.03;0.93;;;12.80;99.90;;;;;;6249450;23;20023;-82
2023/06/30 04:43:38;;;;;;;1.55;0.80;;;12.80;99.90;;;;;;6249438;23;20455;-84
2023/06/30 04:46:03;;;;;;;4.20;0.70;;;12.90;99.90;;;;;;6248373;23;20016;-87
2023/06/30 04:48:29;;;;;;;4.40;1.00;;;13.00;99.90;;;;;;6246701;23;20089;-86
2023/06/30 04:50:55;;;;;;;1.90;0.95;;;13.00;99.90;;;;;;6220298;23;20024;-83
2023/06/30 04:53:20;;;;;;;2.63;0.60;;;13.10;99.90;;;;;;6247488;23;20013;-87
2023/06/30 04:55:46;;;;;;;1.20;0.60;;;13.20;99.90;;;;;;6221728;23;20020;-86
2023/06/30 04:58:12;;;;;;;1.88;0.68;;;13.30;99.90;;;;;;6247703;23;20030;-85
2023/06/30 05:00:39;;;;;;;1.85;0.70;;;13.30;99.90;;;;;;6249140;23;20355;-87
2023/06/30 05:03:05;;;;;;;1.85;0.70;;;13.40;99.90;;;;;;6247778;23;20020;-87
2023/06/30 05:05:31;;;;;;;1.23;0.60;;;13.50;99.90;;;;;;6247294;23;20023;-85
2023/06/30 05:07:57;;;;;;;1.80;0.98;;;13.50;99.90;;;;;;6220539;23;20020;-87
2023/06/30 05:10:22;;;;;;;1.00;0.57;;;13.60;99.90;;;;;;6218648;23;20035;-86
2023/06/30 05:12:48;;;;;;;1.75;0.68;;;13.60;99.90;;;;;;6246292;23;20072;-85
2023/06/30 05:15:14;;;;;;;2.35;0.63;;;13.70;99.90;;;;;;6246825;23;20024;-89
2023/06/30 05:17:40;;;;;;;2.03;0.73;;;13.80;99.90;;;;;;6245798;23;20332;-84
2023/06/30 05:20:08;;;;;;;2.55;0.70;;;13.90;99.90;;;;;;6246555;23;20027;-84
2023/06/30 05:22:34;;;;;;;0.85;0.63;;;13.90;99.90;;;;;;6246214;23;20328;-85
2023/06/30 05:25:00;;;;;;;2.67;0.70;;;14.00;99.90;;;;;;6246319;23;20043;-88
2023/06/30 05:27:26;;;;;;;1.67;0.98;;;14.00;99.90;;;;;;6246138;23;20455;-88
2023/06/30 05:29:51;;;;;;;2.38;0.73;;;14.30;99.90;;;;;;6245867;23;20024;-84
2023/06/30 05:32:17;;;;;;;0.82;0.60;;;14.30;99.90;;;;;;6245893;23;20403;-85
2023/06/30 05:34:43;;;;;;;1.25;0.52;;;14.50;99.90;;;;;;6219040;23;20008;-84
2023/06/30 05:37:09;;;;;;;1.40;0.55;;;14.60;99.90;;;;;;6246205;23;20031;-85
2023/06/30 05:39:35;;;;;;;1.75;0.70;;;14.80;99.90;;;;;;6245785;23;20091;-83
2023/06/30 05:42:01;;;;;;;2.28;0.80;;;15.00;99.90;;;;;;6245719;23;20062;-84
2023/06/30 05:44:27;;;;;;;2.47;1.00;;;15.20;99.90;;;;;;6219149;23;20078;-88
2023/06/30 05:46:53;;;;;;;1.50;0.68;;;15.40;99.90;;;;;;6246391;23;20012;-84
2023/06/30 05:49:18;;;;;;;2.28;0.70;;;15.60;99.90;;;;;;6246383;23;20035;-83
2023/06/30 05:51:44;;;;;;;1.33;1.10;;;15.70;99.90;;;;;;6245981;23;20027;-85
2023/06/30 05:54:10;;;;;;;1.20;0.60;;;15.90;99.90;;;;;;6245864;23;20355;-84
2023/06/30 05:56:36;;;;;;;1.70;0.60;;;16.00;99.90;;;;;;6246016;23;20118;-87
2023/06/30 05:59:02;;;;;;;0.93;0.57;;;16.20;99.90;;;;;;6245935;23;20030;-84
2023/06/30 06:01:27;;;;;;;3.58;1.23;;;16.30;99.90;;;;;;6246175;23;20379;-85
2023/06/30 06:03:53;;;;;;;1.52;0.68;;;16.30;99.90;;;;;;6245027;23;20024;-85
2023/06/30 06:06:21;;;;;;;2.50;0.85;;;16.60;99.90;;;;;;6245665;23;20074;-85
2023/06/30 06:08:46;;;;;;;1.75;0.65;;;16.80;99.90;;;;;;6245655;23;20016;-84
2023/06/30 06:11:13;;;;;;;5.75;0.90;;;16.90;99.90;;;;;;6218797;23;20019;-88
2023/06/30 06:13:39;;;;;;;2.13;1.02;;;17.00;99.90;;;;;;6245930;23;20052;-88
2023/06/30 06:16:06;;;;;;;2.75;0.60;;;17.10;99.90;;;;;;6245777;23;20020;-86
2023/06/30 06:18:33;;;;;;;0.93;0.40;;;17.30;99.90;;;;;;6246374;23;20027;-83
2023/06/30 06:21:01;;;;;;;1.95;0.68;;;17.50;99.90;;;;;;6246568;23;20042;-84
2023/06/30 06:23:27;;;;;;;2.85;0.80;;;17.70;99.90;;;;;;6246600;23;20078;-84
2023/06/30 06:25:53;;;;;;;2.05;0.60;;;17.80;99.90;;;;;;6246866;23;20342;-83
2023/06/30 06:28:18;;;;;;;1.63;0.68;;;17.80;99.90;;;;;;6246246;23;20102;-83
2023/06/30 06:30:45;;;;;;;1.48;0.50;;;18.00;99.90;;;;;;6246991;23;20347;-85
2023/06/30 06:33:11;;;;;;;4.38;0.60;;;18.10;99.90;;;;;;6219958;23;20016;-84
2023/06/30 06:35:36;;;;;;;1.98;0.82;;;18.20;99.90;;;;;;6218641;23;20099;-83
2023/06/30 06:38:02;;;;;;;1.73;0.70;;;18.40;99.90;;;;;;6218847;23;20044;-85
2023/06/30 06:40:29;;;;;;;1.88;0.60;;;18.50;99.90;;;;;;6245553;23;20590;-85
2023/06/30 06:42:55;;;;;;;4.38;0.80;;;18.50;99.90;;;;;;6218835;23;20012;-85
2023/06/30 06:45:25;;;;;;;4.03;0.80;;;18.60;99.90;;;;;;6243670;23;20098;-84
2023/06/30 06:48:16;;;;;;;2.75;0.60;;;18.80;99.90;;;;;;6218166;23;20439;-86
2023/06/30 06:50:42;;;;;;;1.63;0.50;;;18.90;99.90;;;;;;6218247;23;20099;-84
2023/06/30 06:53:08;;;;;;;28.58;26.15;;;19.10;99.90;;;;;;6218242;23;20439;-83
2023/06/30 06:55:33;;;;;;;1.17;0.50;;;19.20;99.90;;;;;;6217793;23;20022;-85
2023/06/30 06:57:59;;;;;;;2.00;0.40;;;19.30;99.90;;;;;;6244197;23;20020;-83
2023/06/30 07:00:25;;;;;;;3.05;0.50;;;19.30;99.90;;;;;;6245593;23;20031;-87
2023/06/30 07:02:52;;;;;;;4.50;0.55;;;19.40;99.90;;;;;;6245411;23;20016;-86
2023/06/30 07:05:17;;;;;;;1017.65;579.95;;;19.40;99.90;;;;;;6245104;23;20016;-85
2023/06/30 07:07:46;;;;;;;4.07;0.40;;;19.30;99.90;;;;;;6218651;23;20043;-86
2023/06/30 07:10:12;;;;;;;2.08;0.40;;;19.30;99.90;;;;;;6193423;23;20095;-86
2023/06/30 07:12:38;;;;;;;3.40;0.40;;;19.10;99.90;;;;;;6218516;23;20051;-88
2023/06/30 07:15:06;;;;;;;3.83;0.47;;;19.10;99.90;;;;;;6218387;23;20091;-86
2023/06/30 07:17:40;;;;;;;2.50;0.47;;;19.30;99.90;;;;;;6193560;23;20115;-89
2023/06/30 07:20:11;;;;;;;0.57;0.40;;;19.30;99.90;;;;;;6245564;23;20031;-88
2023/06/30 07:22:39;;;;;;;2.08;0.50;;;19.30;99.90;;;;;;6218461;23;20331;-88
2023/06/30 07:25:14;;;;;;;3.97;0.60;;;19.40;99.90;;;;;;6219207;23;20028;-86
2023/06/30 07:27:40;;;;;;;2.92;0.50;;;19.50;99.90;;;;;;6217539;23;20455;-88
2023/06/30 07:30:27;;;;;;;1.65;0.50;;;19.60;99.90;;;;;;6218238;23;20108;-91
2023/06/30 07:32:56;;;;;;;2.92;0.40;;;19.70;99.90;;;;;;6220134;23;20080;-88
2023/06/30 07:38:46;;;;;;;2.17;0.47;;;19.50;99.90;;;;;;6220248;23;20031;-88
2023/06/30 07:41:42;;;;;;;6.00;0.60;;;19.50;99.90;;;;;;6099963;23;20026;-88
2023/06/30 07:44:38;;;;;;;;;;;;;;;;;;;;;
2023/06/30 07:47:46;;;;;;;;;;;;;;;;;;;;;
2023/06/30 07:50:13;;;;;;;2.67;0.88;;;19.40;99.90;;;;;;6095530;23;20062;-89
2023/06/30 07:52:43;;;;;;;1.88;0.50;;;19.60;99.90;;;;;;6076048;23;20489;-85
2023/06/30 07:55:10;;;;;;;1.85;0.40;;;19.60;99.90;;;;;;6124114;23;20018;-84
2023/06/30 07:57:35;;;;;;;0.80;0.50;;;19.50;99.90;;;;;;6124784;23;20464;-90
2023/06/30 08:00:03;;;;;;;2.05;0.30;;;19.60;99.90;;;;;;6101918;23;20112;-88
2023/06/30 08:02:29;;;;;;;0.88;0.40;;;19.70;99.90;;;;;;6127302;23;20018;-88
2023/06/30 08:04:54;;;;;;;1.30;0.30;;;20.00;99.90;;;;;;6104849;23;20499;-89
2023/06/30 08:07:23;;;;;;;1.10;0.32;;;20.20;99.90;;;;;;6132243;23;20029;-91
2023/06/30 08:09:49;;;;;;;1.83;0.25;;;20.30;99.90;;;;;;6102342;23;20022;-90
2023/06/30 08:12:15;;;;;;;0.38;0.25;;;20.40;99.90;;;;;;6126289;23;20057;-86
2023/06/30 08:14:41;;;;;;;1.63;0.30;;;20.30;99.90;;;;;;6103751;23;20022;-90
2023/06/30 08:17:06;;;;;;;0.85;0.22;;;20.30;99.90;;;;;;6105138;23;20025;-87
2023/06/30 08:19:32;;;;;;;0.30;0.20;;;20.20;99.90;;;;;;6195851;23;20046;-87
2023/06/30 08:21:58;;;;;;;1.40;0.20;;;20.40;99.90;;;;;;6220575;23;20062;-86
2023/06/30 08:24:24;;;;;;;1.08;0.30;;;20.60;99.90;;;;;;6246675;23;20351;-83
2023/06/30 08:26:49;;;;;;;1.00;0.30;;;21.00;99.90;;;;;;6252210;23;20024;-89
2023/06/30 08:29:15;;;;;;;2.45;0.40;;;21.20;99.90;;;;;;6205299;23;20017;-94
2023/06/30 08:31:41;;;;;;;1.92;0.40;;;21.20;99.90;;;;;;6249708;23;20347;-88
2023/06/30 08:34:08;;;;;;;1.35;0.40;;;21.30;99.90;;;;;;6194480;23;20027;-87
2023/06/30 08:36:34;;;;;;;2.47;0.40;;;21.40;99.90;;;;;;6247049;23;20020;-87
2023/06/30 08:39:00;;;;;;;2.55;0.30;;;21.40;99.90;;;;;;6246306;23;20024;-87
2023/06/30 08:41:27;;;;;;;1.30;0.30;;;21.50;99.90;;;;;;6220662;23;20328;-86
2023/06/30 08:43:56;;;;;;;2.67;0.40;;;21.60;99.90;;;;;;6220441;23;20023;-87
2023/06/30 08:46:24;;;;;;;1.60;0.35;;;21.30;99.90;;;;;;6246908;23;20466;-88
2023/06/30 08:48:50;;;;;;;3.58;0.40;;;21.10;99.90;;;;;;6220726;23;20028;-93
2023/06/30 08:51:20;;;;;;;1.55;0.30;;;21.10;99.90;;;;;;6220310;23;20024;-88
2023/06/30 08:53:47;;;;;;;4.45;0.30;;;20.90;99.90;;;;;;6247310;23;20024;-91
2023/06/30 08:56:15;;;;;;;1.30;0.30;;;20.90;99.90;;;;;;6208768;23;20024;-94
2023/06/30 08:58:41;;;;;;;1.60;0.20;;;21.30;99.90;;;;;;6225967;23;20099;-91
2023/06/30 09:01:19;;;;;;;1.17;0.43;;;21.70;99.90;;;;;;6237357;22;20111;-94
2023/06/30 09:03:46;;;;;;;0.73;0.30;;;21.70;99.90;;;;;;6257637;22;20020;-93
2023/06/30 09:06:12;;;;;;;0.80;0.30;;;21.80;99.90;;;;;;6229825;23;20031;-91
2023/06/30 09:08:55;;;;;;;2.05;0.40;;;21.60;99.90;;;;;;6237070;23;20068;-92
2023/06/30 09:15:02;;;;;;;2.60;0.25;;;21.50;99.90;;;;;;6252438;23;20019;-93
2023/06/30 09:17:30;;;;;;;1.95;0.40;;;21.80;99.90;;;;;;6225708;23;20072;-87
2023/06/30 09:19:56;;;;;;;2.05;0.40;;;22.10;99.90;;;;;;6223175;23;20058;-90
2023/06/30 09:22:22;;;;;;;3.30;0.35;;;22.40;99.90;;;;;;6195879;23;20347;-90
2023/06/30 09:32:10;;;;;;;0.47;0.20;;;22.40;99.90;;;;;;6246631;23;20104;-92
2023/06/30 09:34:36;;;;;;;2.55;0.40;;;22.40;99.90;;;;;;6246427;23;20048;-88
2023/06/30 09:37:01;;;;;;;2.75;0.20;;;22.50;99.90;;;;;;6221395;23;20020;-90
2023/06/30 09:39:27;;;;;;;1.95;0.30;;;22.90;99.90;;;;;;6246309;23;20021;-91
2023/06/30 09:41:53;;;;;;;1.00;0.35;;;23.30;99.90;;;;;;6220154;23;20039;-86
2023/06/30 09:44:20;;;;;;;1.08;0.30;;;23.10;99.40;;;;;;6193924;23;20015;-91
2023/06/30 09:46:53;;;;;;;0.70;0.20;;;22.90;98.40;;;;;;6218852;23;20441;-87
2023/06/30 09:49:37;;;;;;;1.17;0.20;;;22.40;98.30;;;;;;6246185;23;20028;-90
2023/06/30 09:52:03;;;;;;;1.13;0.10;;;22.30;99.90;;;;;;6193349;23;20054;-87
2023/06/30 09:54:30;;;;;;;1.75;0.35;;;22.30;98.70;;;;;;6218052;23;20401;-91
2023/06/30 09:57:00;;;;;;;1.40;0.20;;;22.20;99.60;;;;;;6245571;23;20016;-91
2023/06/30 09:59:29;;;;;;;0.47;0.20;;;22.60;99.90;;;;;;6219193;23;20020;-93
2023/06/30 10:01:57;;;;;;;1.02;0.25;;;22.90;99.70;;;;;;6246495;23;20059;-89
2023/06/30 10:04:24;;;;;;;1.05;0.25;;;23.00;97.30;;;;;;6177117;23;20447;-91
2023/06/30 10:06:54;;;;;;;2.13;0.55;;;22.80;98.20;;;;;;6192625;23;20021;-91
2023/06/30 10:09:21;;;;;;;1.17;0.30;;;22.60;99.40;;;;;;6196870;23;20020;-91
2023/06/30 10:11:52;;;;;;;1.15;0.30;;;22.80;99.30;;;;;;6222029;23;20032;-92
2023/06/30 10:14:28;;;;;;;0.70;0.52;;;23.00;98.30;;;;;;6223637;23;20036;-88
2023/06/30 10:16:57;;;;;;;1.35;0.30;;;23.00;95.80;;;;;;6225545;23;20044;-91
2023/06/30 10:19:25;;;;;;;0.80;0.30;;;23.20;94.90;;;;;;6220442;23;20059;-88
2023/06/30 10:21:52;;;;;;;2.50;0.45;;;23.00;94.40;;;;;;6219246;23;20119;-92
2023/06/30 10:24:23;;;;;;;4.78;0.35;;;22.90;95.00;;;;;;6216535;23;20016;-93
2023/06/30 10:26:50;;;;;;;0.57;0.22;;;22.70;95.60;;;;;;6217180;23;20103;-93
2023/06/30 10:29:16;;;;;;;0.82;0.20;;;22.80;96.20;;;;;;6216178;23;20017;-91
2023/06/30 10:31:42;;;;;;;0.38;0.20;;;23.10;95.40;;;;;;6216700;23;20079;-92
2023/06/30 10:34:12;;;;;;;3.70;0.50;;;23.20;93.60;;;;;;6189269;23;20078;-91
2023/06/30 10:36:39;;;;;;;0.47;0.20;;;22.90;93.30;;;;;;6216434;23;20515;-90
2023/06/30 10:39:05;;;;;;;1.73;0.32;;;23.20;95.80;;;;;;6218512;23;20027;-93
2023/06/30 10:41:30;;;;;;;1.35;0.40;;;23.20;93.50;;;;;;6216188;23;20408;-91
2023/06/30 10:44:09;;;;;;;2.75;0.30;;;23.00;95.70;;;;;;6191558;23;20027;-91
2023/06/30 10:46:50;;;;;;;0.32;0.30;;;23.10;96.00;;;;;;6190521;23;20024;-88
2023/06/30 10:49:29;;;;;;;1.45;0.40;;;23.10;96.00;;;;;;6217248;23;20060;-89
2023/06/30 10:51:57;;;;;;;0.82;0.20;;;22.90;94.70;;;;;;6189970;23;20031;-90
2023/06/30 10:54:25;;;;;;;1.10;0.20;;;23.00;96.60;;;;;;6190027;23;20027;-87
2023/06/30 10:56:52;;;;;;;1.15;0.30;;;23.40;96.70;;;;;;6217153;23;20448;-92
2023/06/30 10:59:22;;;;;;;1.30;0.40;;;23.80;96.00;;;;;;6192086;23;20035;-93
2023/06/30 11:02:21;;;;;;;2.35;0.40;;;23.80;93.60;;;;;;6189482;23;20467;-86
2023/06/30 11:04:52;;;;;;;0.80;0.30;;;24.20;94.00;;;;;;6213870;23;20059;-92
2023/06/30 11:07:26;;;;;;;1.15;0.40;;;24.30;95.20;;;;;;6250018;23;20076;-94
2023/06/30 11:09:51;;;;;;;1.20;0.45;;;24.10;93.40;;;;;;6248659;23;20016;-90
2023/06/30 11:12:24;;;;;;;1.90;0.30;;;23.80;93.00;;;;;;6220480;23;20351;-90
2023/06/30 11:14:58;;;;;;;0.50;0.20;;;23.30;92.70;;;;;;6221738;23;20021;-92
2023/06/30 11:17:25;;;;;;;2.42;0.25;;;23.30;95.50;;;;;;6248304;23;20024;-93
2023/06/30 11:19:57;;;;;;;1.08;0.52;;;23.30;94.80;;;;;;6221615;23;20028;-94
2023/06/30 11:22:32;;;;;;;1.63;0.50;;;23.40;93.80;;;;;;6221932;23;20039;-92
2023/06/30 11:25:02;;;;;;;2.00;0.40;;;23.70;93.20;;;;;;6196069;23;20095;-88
2023/06/30 11:27:31;;;;;;;1.38;0.30;;;23.80;92.30;;;;;;6248761;23;20020;-88
2023/06/30 11:30:00;;;;;;;3.15;0.30;;;24.20;94.10;;;;;;6248247;23;20048;-92
2023/06/30 11:32:30;;;;;;;1.88;0.22;;;24.40;94.00;;;;;;6249452;23;20020;-91
2023/06/30 11:34:59;;;;;;;1.25;0.30;;;24.30;93.70;;;;;;6247413;23;20055;-92
2023/06/30 11:37:26;;;;;;;2.63;0.38;;;24.30;93.50;;;;;;6250491;23;20026;-94
2023/06/30 11:39:57;;;;;;;1.33;0.30;;;24.20;94.20;;;;;;6220514;23;20486;-90
2023/06/30 11:42:23;;;;;;;1.50;0.32;;;24.30;94.20;;;;;;6220523;23;20024;-91
2023/06/30 11:44:49;;;;;;;1196.50;743.40;;;24.60;94.10;;;;;;6247766;23;20031;-91
2023/06/30 11:47:19;;;;;;;1222.83;674.40;;;24.80;93.70;;;;;;6247927;23;20031;-92
2023/06/30 11:49:46;;;;;;;1133.60;615.00;;;24.90;93.00;;;;;;6220676;23;20020;-91
2023/06/30 11:52:21;;;;;;;1.67;0.30;;;25.00;91.80;;;;;;6250270;23;20019;-89
2023/06/30 11:54:50;;;;;;;2.25;0.20;;;25.00;91.90;;;;;;6222133;23;20059;-92
2023/06/30 11:57:16;;;;;;;1.13;0.20;;;24.90;91.40;;;;;;6197377;23;20035;-89
2023/06/30 11:59:42;;;;;;;4.00;0.63;;;24.90;92.10;;;;;;6198126;23;20031;-91
2023/06/30 12:02:12;;;;;;;1.08;0.30;;;25.10;90.30;;;;;;6198592;23;20027;-88
2023/06/30 12:04:38;;;;;;;1.70;0.30;;;25.30;91.20;;;;;;6248131;23;20016;-92
2023/06/30 12:07:05;;;;;;;0.82;0.30;;;25.50;91.70;;;;;;6226201;23;20027;-91
2023/06/30 12:09:31;;;;;;;6.38;0.50;;;25.20;90.90;;;;;;6254313;23;20031;-92
2023/06/30 12:11:58;;;;;;;5.47;0.30;;;24.90;89.00;;;;;;6254829;23;20024;-89
2023/06/30 12:14:25;;;;;;;1.10;0.20;;;24.60;91.50;;;;;;6248213;23;20090;-91
2023/06/30 12:16:54;;;;;;;1.55;0.30;;;24.50;91.90;;;;;;6219919;23;20017;-87
2023/06/30 12:19:27;;;;;;;1.40;0.30;;;24.50;91.10;;;;;;6219634;23;20012;-87
2023/06/30 12:22:00;;;;;;;1.38;0.40;;;24.80;90.20;;;;;;6219702;23;20024;-87
2023/06/30 12:24:34;;;;;;;1.17;0.50;;;25.20;90.00;;;;;;6219602;23;20054;-86
2023/06/30 12:27:07;;;;;;;46.53;43.10;;;25.60;89.40;;;;;;6219548;23;20024;-90
2023/06/30 12:29:35;;;;;;;1.95;0.40;;;25.90;89.90;;;;;;6246739;23;20423;-89
2023/06/30 12:32:10;;;;;;;0.75;0.30;;;26.00;87.10;;;;;;6246650;23;20031;-91
2023/06/30 12:34:36;;;;;;;1.10;0.30;;;25.70;90.00;;;;;;6246199;23;20012;-90
2023/06/30 12:37:03;;;;;;;0.77;0.30;;;25.50;90.50;;;;;;6219477;23;20573;-88
2023/06/30 12:39:29;;;;;;;0.65;0.28;;;26.00;89.30;;;;;;6219723;23;20017;-89
2023/06/30 12:41:55;;;;;;;0.77;0.20;;;26.40;89.70;;;;;;6247790;23;20477;-88
2023/06/30 12:44:21;;;;;;;0.60;0.20;;;26.70;88.20;;;;;;6220176;23;20028;-88
2023/06/30 12:47:01;;;;;;;2.75;0.45;;;27.00;86.90;;;;;;6224106;23;20411;-85
2023/06/30 12:49:28;;;;;;;1.75;0.35;;;26.80;87.40;;;;;;6248174;23;20019;-88
2023/06/30 12:51:54;;;;;;;3.28;0.40;;;27.10;85.50;;;;;;6248008;23;20024;-90
2023/06/30 12:54:20;;;;;;;1.85;0.30;;;27.00;87.30;;;;;;6220870;23;20020;-88
2023/06/30 12:56:46;;;;;;;2.60;0.35;;;26.90;82.50;;;;;;6194555;23;20024;-86
2023/06/30 12:59:11;;;;;;;3.28;0.32;;;26.60;84.00;;;;;;6219442;23;20055;-87
2023/06/30 13:01:37;;;;;;;1.85;0.32;;;26.60;85.20;;;;;;6219348;23;20020;-88
2023/06/30 13:04:03;;;;;;;1.45;0.30;;;26.80;83.90;;;;;;6243145;23;20094;-88
2023/06/30 13:06:29;;;;;;;3.10;0.30;;;26.60;84.60;;;;;;6219500;23;20051;-88